Time;durP1;ratioP1;P1;durP2;ratioP2;P2;SDS_P1;SDS_P2;PMS_P1;PMS_P2;Temp;Humidity;BMP_temperature;BMP_pressure;BME280_temperature;BME280_humidity;BME280_pressure;Samples;Min_cycle;Max_cycle;Signal;HPM_P1;HPM_P2
2022/01/16 00:01:58;;;;;;;54.00;28.30;;;4.70;99.90;;;;;;5115752;28;20185;-78
2022/01/16 00:04:24;;;;;;;55.78;28.80;;;4.60;99.90;;;;;;5115304;28;20595;-78
2022/01/16 00:06:50;;;;;;;49.92;28.50;;;4.70;99.90;;;;;;5115315;28;20546;-78
2022/01/16 00:09:16;;;;;;;51.42;27.90;;;4.70;99.90;;;;;;5115718;28;20185;-77
2022/01/16 00:11:42;;;;;;;53.05;29.27;;;4.60;99.90;;;;;;5115536;28;20717;-77
2022/01/16 00:14:08;;;;;;;64.22;30.25;;;4.80;99.90;;;;;;5115472;28;20685;-77
2022/01/16 00:16:34;;;;;;;59.08;29.25;;;4.70;99.90;;;;;;5114705;28;20215;-78
2022/01/16 00:19:00;;;;;;;61.53;28.52;;;4.90;99.90;;;;;;5114020;28;20633;-77
2022/01/16 00:21:37;;;;;;;58.58;29.25;;;4.70;99.90;;;;;;5113893;28;20213;-79
2022/01/16 00:24:04;;;;;;;56.42;29.02;;;4.60;99.90;;;;;;5115166;28;20165;-78
2022/01/16 00:26:29;;;;;;;57.15;29.63;;;4.70;99.90;;;;;;5114741;28;20177;-78
2022/01/16 00:28:55;;;;;;;48.38;25.88;;;4.80;99.90;;;;;;5115235;28;20169;-78
2022/01/16 00:31:23;;;;;;;54.20;27.88;;;4.60;99.90;;;;;;5115077;28;20675;-77
2022/01/16 00:33:51;;;;;;;53.03;28.75;;;4.70;99.90;;;;;;5115279;28;20221;-77
2022/01/16 00:36:19;;;;;;;53.80;28.55;;;4.70;99.90;;;;;;5115635;28;21152;-78
2022/01/16 00:38:46;;;;;;;54.55;28.33;;;4.70;99.90;;;;;;5114698;28;20168;-79
2022/01/16 00:41:13;;;;;;;50.65;27.17;;;4.50;99.90;;;;;;5114398;28;20185;-78
2022/01/16 00:43:39;;;;;;;51.22;26.80;;;4.40;99.90;;;;;;5115560;28;20169;-79
2022/01/16 00:46:04;;;;;;;52.88;28.92;;;4.50;99.90;;;;;;5115247;28;20157;-79
2022/01/16 00:48:30;;;;;;;58.78;28.85;;;4.60;99.90;;;;;;5113855;28;20258;-77
2022/01/16 00:50:56;;;;;;;59.45;30.38;;;4.80;99.90;;;;;;5114038;28;20661;-86
2022/01/16 00:53:22;;;;;;;56.78;28.63;;;5.00;99.90;;;;;;5114644;28;20173;-82
2022/01/16 00:55:47;;;;;;;49.95;28.15;;;5.00;99.90;;;;;;5115055;28;20171;-78
2022/01/16 00:58:13;;;;;;;63.42;28.85;;;5.10;99.90;;;;;;5115172;28;20172;-77
2022/01/16 01:00:38;;;;;;;58.47;28.00;;;5.10;99.90;;;;;;5115279;28;20517;-77
2022/01/16 01:03:08;;;;;;;57.05;28.05;;;4.80;99.90;;;;;;5114811;28;20165;-81
2022/01/16 01:05:35;;;;;;;45.58;26.52;;;4.90;99.90;;;;;;5114754;28;20622;-78
2022/01/16 01:08:02;;;;;;;54.10;27.88;;;5.20;99.90;;;;;;5114843;28;20209;-78
2022/01/16 01:10:32;;;;;;;53.15;28.00;;;5.30;99.90;;;;;;5114727;28;20185;-78
2022/01/16 01:13:08;;;;;;;49.28;26.33;;;5.20;99.90;;;;;;5115000;28;20169;-78
2022/01/16 01:15:46;;;;;;;51.13;27.67;;;5.10;99.90;;;;;;5113298;28;20176;-78
2022/01/16 01:18:12;;;;;;;54.50;26.38;;;4.90;99.90;;;;;;5114631;28;20172;-78
2022/01/16 01:20:40;;;;;;;51.95;27.13;;;4.80;99.90;;;;;;5114456;28;20189;-77
2022/01/16 01:23:06;;;;;;;51.38;27.52;;;4.90;99.90;;;;;;5114493;28;20181;-78
2022/01/16 01:25:32;;;;;;;56.53;26.80;;;5.00;99.90;;;;;;5114465;28;20575;-78
2022/01/16 01:27:57;;;;;;;49.78;26.52;;;4.80;99.90;;;;;;5113438;28;20208;-78
2022/01/16 01:30:24;;;;;;;51.83;25.90;;;4.90;99.90;;;;;;5113256;28;20276;-80
2022/01/16 01:32:52;;;;;;;57.65;28.73;;;5.00;99.90;;;;;;5114364;28;20538;-78
2022/01/16 01:35:20;;;;;;;50.63;27.08;;;5.10;99.90;;;;;;5115076;28;20158;-79
2022/01/16 01:37:47;;;;;;;44.75;25.25;;;5.10;99.90;;;;;;5121655;28;20165;-77
2022/01/16 01:40:17;;;;;;;57.67;27.58;;;5.10;99.90;;;;;;5117534;28;20196;-78
2022/01/16 01:42:47;;;;;;;49.17;26.25;;;5.20;99.90;;;;;;5116688;28;20518;-79
2022/01/16 01:51:13;;;;;;;49.72;26.77;;;5.10;99.90;;;;;;5115265;28;20723;-78
2022/01/16 01:53:40;;;;;;;50.70;26.52;;;5.20;99.90;;;;;;5118332;28;20161;-78
2022/01/16 01:56:08;;;;;;;59.95;27.05;;;5.30;99.90;;;;;;5116325;28;20165;-78
2022/01/16 01:58:34;;;;;;;46.88;26.77;;;5.30;99.90;;;;;;5118737;28;20256;-79
2022/01/16 02:01:00;;;;;;;52.40;27.30;;;5.50;99.90;;;;;;5119516;28;20216;-78
2022/01/16 02:03:33;;;;;;;53.92;26.30;;;5.60;99.90;;;;;;5119539;28;20153;-78
2022/01/16 02:05:59;;;;;;;50.85;25.58;;;5.60;99.90;;;;;;5119500;28;20187;-78
2022/01/16 02:08:25;;;;;;;49.72;26.30;;;5.40;99.90;;;;;;5118745;28;20586;-79
2022/01/16 02:10:51;;;;;;;50.47;25.58;;;5.50;99.90;;;;;;5116751;28;20189;-78
2022/01/16 02:13:25;;;;;;;56.95;26.42;;;5.50;99.90;;;;;;5123232;28;20168;-78
2022/01/16 02:34:39;;;;;;;48.47;26.33;;;5.90;99.90;;;;;;5116025;28;20181;-79
2022/01/16 02:37:11;;;;;;;52.40;25.25;;;5.80;99.90;;;;;;5116139;28;20160;-80
2022/01/16 02:39:42;;;;;;;48.75;25.33;;;5.80;99.90;;;;;;5116563;28;20165;-79
2022/01/16 02:42:11;;;;;;;43.70;24.40;;;5.70;99.90;;;;;;5116902;28;20153;-79
2022/01/16 02:44:48;;;;;;;46.60;24.92;;;5.70;99.90;;;;;;5117126;28;20180;-79
2022/01/16 02:47:19;;;;;;;48.97;26.40;;;5.50;99.90;;;;;;5117635;28;20699;-79
2022/01/16 02:49:49;;;;;;;52.28;26.42;;;5.50;99.90;;;;;;5117060;28;20153;-79
2022/01/16 02:52:19;;;;;;;49.53;25.88;;;5.70;99.90;;;;;;5114870;28;20534;-77
2022/01/16 02:54:46;;;;;;;53.63;25.15;;;5.80;99.90;;;;;;5117375;28;20191;-80
2022/01/16 02:57:15;;;;;;;51.28;26.15;;;5.80;99.90;;;;;;5115344;28;20245;-78
2022/01/16 02:59:51;;;;;;;53.50;25.98;;;5.70;99.90;;;;;;5116483;28;20166;-78
2022/01/16 03:02:19;;;;;;;50.10;25.65;;;5.50;99.90;;;;;;5117107;28;20585;-79
2022/01/16 03:04:45;;;;;;;53.55;26.05;;;5.70;99.90;;;;;;5115863;28;20618;-78
2022/01/16 03:07:10;;;;;;;53.45;25.88;;;5.70;99.90;;;;;;5118256;28;20261;-78
2022/01/16 03:10:04;;;;;;;56.13;26.42;;;5.60;99.90;;;;;;5117136;28;20534;-80
2022/01/16 03:12:31;;;;;;;52.67;24.63;;;5.50;99.90;;;;;;5116680;28;20169;-77
2022/01/16 03:14:57;;;;;;;45.80;24.60;;;5.50;99.90;;;;;;5116445;28;20201;-78
2022/01/16 03:17:36;;;;;;;50.85;26.42;;;5.30;99.90;;;;;;5117381;28;20305;-85
2022/01/16 03:22:48;;;;;;;55.15;26.35;;;5.50;99.90;;;;;;5113470;28;20685;-79
2022/01/16 03:25:16;;;;;;;50.42;26.35;;;5.60;99.90;;;;;;5113354;28;20239;-77
2022/01/16 03:27:41;;;;;;;58.05;26.98;;;5.80;99.90;;;;;;5113232;28;20201;-78
2022/01/16 03:30:08;;;;;;;46.53;25.60;;;5.70;99.90;;;;;;5113098;28;20724;-78
2022/01/16 03:32:33;;;;;;;55.72;27.48;;;5.70;99.90;;;;;;5113219;28;20698;-78
2022/01/16 03:34:59;;;;;;;60.40;28.60;;;5.40;99.90;;;;;;5113236;28;20165;-78
2022/01/16 03:37:24;;;;;;;55.33;27.45;;;5.40;99.90;;;;;;5113257;28;20200;-77
2022/01/16 03:39:50;;;;;;;58.63;27.17;;;5.50;99.90;;;;;;5112979;28;20161;-78
2022/01/16 03:42:23;;;;;;;53.05;27.23;;;5.40;99.90;;;;;;5113242;28;20161;-81
2022/01/16 03:44:48;;;;;;;52.92;27.70;;;5.40;99.90;;;;;;5117663;28;20157;-78
2022/01/16 03:47:14;;;;;;;52.20;25.15;;;5.50;99.90;;;;;;5114615;28;20250;-77
2022/01/16 03:49:39;;;;;;;65.90;26.88;;;5.70;99.90;;;;;;5120695;28;20201;-77
2022/01/16 03:52:05;;;;;;;54.13;27.70;;;5.70;99.90;;;;;;5127445;28;20645;-77
2022/01/16 03:54:31;;;;;;;58.83;27.40;;;5.60;99.90;;;;;;5129075;28;20161;-79
2022/01/16 03:56:57;;;;;;;56.58;27.42;;;5.60;99.90;;;;;;5127152;28;20169;-79
2022/01/16 03:59:23;;;;;;;56.25;26.08;;;5.50;99.90;;;;;;5119826;28;20172;-78
2022/01/16 04:01:49;;;;;;;62.10;28.02;;;5.30;99.90;;;;;;5119624;28;20185;-78
2022/01/16 04:04:15;;;;;;;61.50;26.83;;;5.30;99.90;;;;;;5119569;28;20168;-78
2022/01/16 04:06:40;;;;;;;53.55;25.85;;;5.30;99.90;;;;;;5118345;28;20522;-78
2022/01/16 04:09:08;;;;;;;59.25;26.25;;;5.10;99.90;;;;;;5118386;28;20173;-78
2022/01/16 04:11:34;;;;;;;56.45;27.83;;;5.00;99.90;;;;;;5119081;28;20227;-77
2022/01/16 04:14:07;;;;;;;54.35;28.80;;;5.10;99.90;;;;;;5121435;28;20230;-78
2022/01/16 04:16:33;;;;;;;59.90;27.45;;;5.20;99.90;;;;;;5125716;28;20165;-76
2022/01/16 04:18:59;;;;;;;53.53;27.33;;;5.00;99.90;;;;;;5133623;28;20162;-77
2022/01/16 04:21:27;;;;;;;60.83;29.20;;;4.80;99.90;;;;;;5120485;28;20191;-77
2022/01/16 04:23:53;;;;;;;60.67;28.08;;;4.80;99.90;;;;;;5118997;28;20180;-78
2022/01/16 04:26:20;;;;;;;67.20;30.70;;;4.60;99.90;;;;;;5119636;28;20176;-78
2022/01/16 04:28:47;;;;;;;68.22;30.10;;;4.70;99.90;;;;;;5118805;28;20196;-80
2022/01/16 04:31:14;;;;;;;58.13;28.30;;;4.80;99.90;;;;;;5116451;28;20556;-78
2022/01/16 04:33:39;;;;;;;59.20;29.70;;;4.60;99.90;;;;;;5115447;28;20264;-78
2022/01/16 04:36:05;;;;;;;67.65;30.20;;;4.60;99.90;;;;;;5114330;28;20184;-79
2022/01/16 04:38:33;;;;;;;64.45;28.33;;;4.70;99.90;;;;;;5115438;28;20529;-78
2022/01/16 04:43:52;;;;;;;60.63;28.20;;;4.70;99.90;;;;;;5118409;28;20324;-78
2022/01/16 04:46:26;;;;;;;61.63;28.67;;;4.50;99.90;;;;;;5118010;28;20172;-79
2022/01/16 04:48:53;;;;;;;56.97;28.20;;;4.50;99.90;;;;;;5114305;28;20632;-78
2022/01/16 04:51:20;;;;;;;58.35;29.05;;;4.40;99.90;;;;;;5119677;28;20189;-83
2022/01/16 04:53:46;;;;;;;64.70;29.50;;;4.20;99.90;;;;;;5117155;28;20256;-78
2022/01/16 04:56:11;;;;;;;56.63;28.85;;;4.10;99.90;;;;;;5118296;28;20638;-77
2022/01/16 04:58:38;;;;;;;60.08;27.05;;;4.20;99.90;;;;;;5115384;28;20272;-78
2022/01/16 05:01:04;;;;;;;64.28;28.10;;;4.40;99.90;;;;;;5117201;28;20233;-79
2022/01/16 05:03:31;;;;;;;65.03;28.25;;;4.40;99.90;;;;;;5118346;28;20161;-79
2022/01/16 05:05:58;;;;;;;64.15;29.55;;;4.40;99.90;;;;;;5117220;28;20189;-79
2022/01/16 05:08:24;;;;;;;59.50;28.05;;;4.60;99.90;;;;;;5117341;28;20198;-80
2022/01/16 05:10:55;;;;;;;56.78;28.90;;;4.60;99.90;;;;;;5116123;28;20185;-77
2022/01/16 05:16:34;;;;;;;58.25;27.40;;;4.60;99.90;;;;;;5116129;28;20176;-79
2022/01/16 05:19:05;;;;;;;68.45;28.67;;;4.80;99.90;;;;;;5114957;28;20179;-78
2022/01/16 05:21:31;;;;;;;67.18;28.20;;;4.90;99.90;;;;;;5114553;28;20223;-78
2022/01/16 05:23:57;;;;;;;67.40;29.33;;;4.80;99.90;;;;;;5114591;28;20248;-77
2022/01/16 05:26:27;;;;;;;64.10;28.02;;;4.90;99.90;;;;;;5114407;28;20657;-78
2022/01/16 05:28:53;;;;;;;59.30;27.50;;;4.80;99.90;;;;;;5112974;28;20208;-80
2022/01/16 05:31:19;;;;;;;63.65;27.00;;;4.90;99.90;;;;;;5114557;28;20199;-81
2022/01/16 05:33:45;;;;;;;67.43;28.88;;;5.00;99.90;;;;;;5114286;28;20167;-78
2022/01/16 05:36:11;;;;;;;72.30;28.83;;;5.00;99.90;;;;;;5114887;28;20581;-80
2022/01/16 05:38:37;;;;;;;83.55;29.63;;;5.00;99.90;;;;;;5114260;28;20182;-79
2022/01/16 05:41:03;;;;;;;62.65;28.02;;;4.90;99.90;;;;;;5114193;28;20272;-78
2022/01/16 05:43:28;;;;;;;67.68;27.90;;;4.90;99.90;;;;;;5114566;28;20494;-78
2022/01/16 05:45:54;;;;;;;68.35;29.10;;;5.00;99.90;;;;;;5114121;28;20173;-78
2022/01/16 05:48:20;;;;;;;64.63;28.08;;;5.00;99.90;;;;;;5114327;28;20782;-79
2022/01/16 05:50:45;;;;;;;72.80;28.05;;;4.80;99.90;;;;;;5114021;28;20707;-78
2022/01/16 05:53:11;;;;;;;75.13;28.88;;;4.90;99.90;;;;;;5114046;28;20169;-78
2022/01/16 05:55:37;;;;;;;66.55;27.45;;;5.10;99.90;;;;;;5112882;28;20260;-78
2022/01/16 05:58:11;;;;;;;66.90;28.27;;;5.00;99.90;;;;;;5114104;28;20161;-77
2022/01/16 06:00:38;;;;;;;65.90;28.38;;;5.20;99.90;;;;;;5114089;28;20250;-81
2022/01/16 06:03:05;;;;;;;81.85;30.17;;;5.30;99.90;;;;;;5114018;28;20162;-77
2022/01/16 06:05:31;;;;;;;65.28;27.88;;;5.10;99.90;;;;;;5113887;28;20188;-86
2022/01/16 06:08:00;;;;;;;55.78;27.13;;;5.00;99.90;;;;;;5113872;28;20691;-87
2022/01/16 06:10:26;;;;;;;75.55;29.52;;;5.10;99.90;;;;;;5113827;28;20205;-79
2022/01/16 06:12:51;;;;;;;69.30;29.10;;;5.10;99.90;;;;;;5113416;28;20663;-78
2022/01/16 06:15:21;;;;;;;68.13;28.17;;;5.20;99.90;;;;;;5113341;28;20183;-77
2022/01/16 06:17:48;;;;;;;61.22;27.73;;;5.10;99.90;;;;;;5113522;28;20192;-78
2022/01/16 06:20:15;;;;;;;76.45;28.77;;;5.20;99.90;;;;;;5113770;28;20246;-87
2022/01/16 06:22:41;;;;;;;70.28;26.98;;;5.40;99.90;;;;;;5113842;28;20189;-78
2022/01/16 06:25:07;;;;;;;68.78;27.40;;;5.40;99.90;;;;;;5113733;28;20173;-78
2022/01/16 06:27:33;;;;;;;71.10;28.60;;;5.50;99.90;;;;;;5113342;28;20216;-77
2022/01/16 06:29:59;;;;;;;58.40;26.38;;;5.40;99.90;;;;;;5113431;28;20198;-78
2022/01/16 06:32:24;;;;;;;66.25;27.88;;;5.40;99.90;;;;;;5113535;28;20185;-78
2022/01/16 06:34:50;;;;;;;64.43;27.67;;;5.30;99.90;;;;;;5113528;28;20169;-78
2022/01/16 06:37:15;;;;;;;68.78;27.40;;;5.40;99.90;;;;;;5113861;28;20176;-78
2022/01/16 06:39:41;;;;;;;74.63;28.77;;;5.20;99.90;;;;;;5111863;28;20177;-78
2022/01/16 06:42:07;;;;;;;70.22;28.65;;;5.20;99.90;;;;;;5114584;28;20171;-82
2022/01/16 06:44:32;;;;;;;67.93;27.92;;;5.00;99.90;;;;;;5113512;28;20173;-77
2022/01/16 06:46:58;;;;;;;62.63;28.55;;;4.80;99.90;;;;;;5113390;28;20193;-80
2022/01/16 06:49:23;;;;;;;83.80;30.63;;;4.90;99.90;;;;;;5113076;28;20697;-79
2022/01/16 06:51:50;;;;;;;72.10;29.00;;;4.90;99.90;;;;;;5113105;28;20177;-79
2022/01/16 06:54:16;;;;;;;75.50;29.38;;;5.10;99.90;;;;;;5113313;28;20165;-78
2022/01/16 06:56:41;;;;;;;71.68;30.63;;;5.00;99.90;;;;;;5113203;28;20207;-79
2022/01/16 06:59:07;;;;;;;74.68;29.27;;;5.00;99.90;;;;;;5113477;28;20585;-77
2022/01/16 07:01:32;;;;;;;66.50;27.85;;;4.80;99.90;;;;;;5113191;28;20328;-77
2022/01/16 07:03:58;;;;;;;75.25;30.08;;;4.60;99.90;;;;;;5111558;28;20528;-78
2022/01/16 07:06:24;;;;;;;66.40;30.33;;;4.60;99.90;;;;;;5113103;28;20226;-78
2022/01/16 07:08:50;;;;;;;67.28;28.10;;;4.60;99.90;;;;;;5113269;28;20219;-78
2022/01/16 07:11:15;;;;;;;77.95;29.27;;;4.70;99.90;;;;;;5111335;28;20185;-80
2022/01/16 07:13:41;;;;;;;76.97;30.80;;;4.80;99.90;;;;;;5112530;28;20191;-80
2022/01/16 07:16:07;;;;;;;67.45;28.45;;;4.80;99.90;;;;;;5112839;28;20281;-85
2022/01/16 07:18:32;;;;;;;62.42;28.13;;;4.70;99.90;;;;;;5112755;28;20653;-77
2022/01/16 07:20:58;;;;;;;66.45;27.00;;;4.70;99.90;;;;;;5112954;28;20189;-81
2022/01/16 07:23:24;;;;;;;72.88;27.98;;;4.70;99.90;;;;;;5113110;28;20173;-81
2022/01/16 07:25:50;;;;;;;62.30;25.73;;;4.70;99.90;;;;;;5113132;28;20173;-78
2022/01/16 07:28:16;;;;;;;70.57;29.48;;;4.60;99.90;;;;;;5114944;28;20205;-82
2022/01/16 07:30:42;;;;;;;65.45;27.38;;;4.50;99.90;;;;;;5116086;28;20249;-78
2022/01/16 07:33:09;;;;;;;56.45;23.13;;;4.60;99.90;;;;;;5116210;28;20170;-82
2022/01/16 07:35:36;;;;;;;58.38;24.75;;;4.80;99.90;;;;;;5115167;28;20563;-85
2022/01/16 07:38:03;;;;;;;57.33;24.20;;;4.80;99.90;;;;;;5116184;28;20225;-80
2022/01/16 07:40:29;;;;;;;67.85;25.85;;;4.70;99.90;;;;;;5116117;28;20189;-78
2022/01/16 07:42:55;;;;;;;60.58;23.42;;;4.80;99.90;;;;;;5115908;28;20171;-82
2022/01/16 07:45:21;;;;;;;48.75;22.88;;;4.80;99.90;;;;;;5115738;28;20617;-80
2022/01/16 07:47:47;;;;;;;56.35;23.65;;;5.00;99.90;;;;;;5116165;28;20219;-85
2022/01/16 07:50:15;;;;;;;54.53;25.00;;;4.80;99.90;;;;;;5116159;28;20184;-83
2022/01/16 07:52:40;;;;;;;59.25;23.52;;;4.80;99.90;;;;;;5115305;28;20551;-84
2022/01/16 07:55:07;;;;;;;52.55;23.42;;;4.80;99.90;;;;;;5116192;28;20196;-81
2022/01/16 07:57:32;;;;;;;53.08;24.02;;;4.90;99.90;;;;;;5116189;28;20197;-79
2022/01/16 07:59:58;;;;;;;58.70;23.50;;;5.00;99.90;;;;;;5116061;28;20209;-78
2022/01/16 08:02:23;;;;;;;57.90;23.35;;;4.80;99.90;;;;;;5114947;28;20173;-80
2022/01/16 08:04:49;;;;;;;44.95;21.48;;;4.90;99.90;;;;;;5115430;28;20165;-81
2022/01/16 08:07:14;;;;;;;60.97;23.80;;;5.00;99.90;;;;;;5114763;28;20268;-79
2022/01/16 08:09:40;;;;;;;53.58;21.98;;;5.00;99.90;;;;;;5116523;28;20184;-80
2022/01/16 08:12:07;;;;;;;54.13;23.50;;;4.90;99.90;;;;;;5116558;28;20165;-81
2022/01/16 08:14:33;;;;;;;62.15;23.80;;;5.00;99.90;;;;;;5116714;28;20614;-79
2022/01/16 08:17:00;;;;;;;49.97;22.17;;;4.90;99.90;;;;;;5116479;28;20184;-78
2022/01/16 08:19:26;;;;;;;56.25;23.05;;;4.90;99.90;;;;;;5122750;28;20157;-84
2022/01/16 08:21:52;;;;;;;70.13;24.83;;;5.00;99.90;;;;;;5122473;28;20680;-77
2022/01/16 08:24:17;;;;;;;57.25;23.40;;;4.90;99.90;;;;;;5123425;28;20172;-77
2022/01/16 08:26:43;;;;;;;56.00;24.20;;;4.90;99.90;;;;;;5124511;28;20181;-77
2022/01/16 08:29:09;;;;;;;48.45;23.08;;;4.80;99.90;;;;;;5113810;28;20177;-76
2022/01/16 08:31:35;;;;;;;53.63;23.83;;;4.80;99.90;;;;;;5115565;28;20192;-77
2022/01/16 08:34:01;;;;;;;55.00;25.08;;;5.00;99.90;;;;;;5113881;28;20534;-78
2022/01/16 08:36:27;;;;;;;54.35;23.92;;;4.80;99.90;;;;;;5113327;28;20161;-77
2022/01/16 08:38:54;;;;;;;58.47;23.30;;;4.70;99.90;;;;;;5115049;28;20172;-78
2022/01/16 08:41:21;;;;;;;52.08;22.45;;;4.70;99.90;;;;;;5115197;28;20227;-77
2022/01/16 08:43:47;;;;;;;70.95;25.23;;;4.80;99.90;;;;;;5114746;28;20165;-78
2022/01/16 08:46:13;;;;;;;56.75;24.65;;;4.90;99.90;;;;;;5114585;28;20168;-84
2022/01/16 08:48:39;;;;;;;59.47;24.70;;;4.90;99.90;;;;;;5114785;28;20197;-77
2022/01/16 08:51:05;;;;;;;57.33;25.23;;;4.90;99.90;;;;;;5113364;28;20272;-80
2022/01/16 08:53:31;;;;;;;61.53;24.17;;;5.00;99.90;;;;;;5114298;28;20669;-77
2022/01/16 08:55:58;;;;;;;62.05;24.00;;;5.10;99.90;;;;;;5114987;28;20827;-78
2022/01/16 08:58:24;;;;;;;56.47;24.30;;;5.20;99.90;;;;;;5114738;28;20506;-78
2022/01/16 09:00:50;;;;;;;67.13;25.48;;;5.20;99.90;;;;;;5114586;28;20181;-78
2022/01/16 09:03:17;;;;;;;58.03;25.02;;;5.10;99.90;;;;;;5114467;28;20158;-80
2022/01/16 09:05:44;;;;;;;56.92;23.65;;;5.30;99.90;;;;;;5114309;28;20169;-79
2022/01/16 09:08:10;;;;;;;61.85;26.73;;;5.20;99.90;;;;;;5114232;28;20621;-76
2022/01/16 09:10:37;;;;;;;61.38;24.65;;;5.10;99.90;;;;;;5114206;28;20185;-77
2022/01/16 09:13:04;;;;;;;64.63;25.55;;;5.10;99.90;;;;;;5113841;28;20165;-81
2022/01/16 09:15:29;;;;;;;65.07;26.13;;;5.10;99.90;;;;;;5113900;28;20165;-77
2022/01/16 09:17:55;;;;;;;63.30;25.20;;;5.10;99.90;;;;;;5113828;28;20256;-78
2022/01/16 09:20:21;;;;;;;64.95;27.77;;;5.10;99.90;;;;;;5114001;28;20184;-83
2022/01/16 09:22:48;;;;;;;66.30;28.27;;;5.00;99.90;;;;;;5113900;28;20217;-80
2022/01/16 09:25:14;;;;;;;57.33;23.73;;;4.90;99.90;;;;;;5113816;28;20203;-77
2022/01/16 09:27:40;;;;;;;60.75;25.20;;;5.00;99.90;;;;;;5113453;28;20258;-76
2022/01/16 09:30:08;;;;;;;57.75;24.10;;;5.00;99.90;;;;;;5113653;28;20231;-77
2022/01/16 09:32:36;;;;;;;54.97;24.52;;;5.00;99.90;;;;;;5117962;28;20169;-79
2022/01/16 09:35:02;;;;;;;46.85;23.35;;;5.20;99.90;;;;;;5102037;28;20294;-79
2022/01/16 09:37:29;;;;;;;62.13;24.35;;;5.20;99.90;;;;;;5118344;28;20172;-80
2022/01/16 09:39:58;;;;;;;54.55;24.85;;;5.30;99.90;;;;;;5117270;28;20165;-80
2022/01/16 09:42:26;;;;;;;53.45;24.15;;;5.30;99.90;;;;;;5120670;28;20161;-78
2022/01/16 09:44:52;;;;;;;53.95;22.60;;;5.50;99.90;;;;;;5118533;28;20228;-83
2022/01/16 09:47:18;;;;;;;53.90;23.63;;;5.60;99.90;;;;;;5120912;28;20220;-78
2022/01/16 09:49:45;;;;;;;55.83;24.65;;;5.60;99.90;;;;;;5118967;28;20640;-79
2022/01/16 09:52:10;;;;;;;50.05;24.50;;;5.70;99.90;;;;;;5120036;28;20153;-84
2022/01/16 09:54:39;;;;;;;54.05;22.85;;;5.60;99.90;;;;;;5119458;28;20240;-77
2022/01/16 09:57:06;;;;;;;48.75;22.75;;;5.70;99.90;;;;;;5115467;28;20609;-78
2022/01/16 09:59:33;;;;;;;52.40;23.73;;;5.50;99.90;;;;;;5116551;28;20161;-78
2022/01/16 10:02:00;;;;;;;51.08;23.10;;;5.50;99.90;;;;;;5116480;28;20200;-79
2022/01/16 10:04:40;;;;;;;49.97;22.45;;;5.30;99.90;;;;;;5128879;28;20165;-79
2022/01/16 10:07:12;;;;;;;45.72;21.83;;;5.40;99.90;;;;;;5125564;28;20659;-76
2022/01/16 10:09:39;;;;;;;45.05;21.95;;;5.50;99.90;;;;;;5115123;28;20172;-78
2022/01/16 10:12:18;;;;;;;38.88;20.30;;;5.50;99.90;;;;;;5115138;28;20165;-77
2022/01/16 10:14:52;;;;;;;43.83;21.58;;;5.40;99.90;;;;;;5114412;28;20580;-78
2022/01/16 10:17:21;;;;;;;43.90;21.67;;;5.40;99.90;;;;;;5119401;28;20530;-78
2022/01/16 10:19:59;;;;;;;41.72;20.23;;;5.50;99.90;;;;;;5115048;28;20169;-78
2022/01/16 10:22:37;;;;;;;41.97;19.92;;;5.30;99.90;;;;;;5117086;28;20165;-78
2022/01/16 10:25:04;;;;;;;39.97;20.27;;;5.40;99.90;;;;;;5118980;28;20161;-78
2022/01/16 10:27:34;;;;;;;42.60;20.00;;;5.40;99.90;;;;;;5117534;28;20242;-78
2022/01/16 10:30:02;;;;;;;40.65;20.05;;;5.40;99.90;;;;;;5120472;28;20185;-78
2022/01/16 10:32:33;;;;;;;44.92;19.38;;;5.30;99.90;;;;;;5119259;28;20161;-78
2022/01/16 10:35:28;;;;;;;42.70;19.92;;;5.50;99.90;;;;;;5118243;28;20244;-81
2022/01/16 10:37:56;;;;;;;42.38;19.52;;;5.30;99.90;;;;;;5115152;28;20230;-78
2022/01/16 10:40:32;;;;;;;38.70;19.73;;;5.40;99.90;;;;;;5114070;28;20181;-81
2022/01/16 10:43:05;;;;;;;35.38;18.50;;;5.40;99.90;;;;;;5119841;28;20747;-84
2022/01/16 10:45:32;;;;;;;43.72;20.00;;;5.30;99.90;;;;;;5119700;28;20196;-78
2022/01/16 10:48:03;;;;;;;40.92;18.48;;;5.40;99.90;;;;;;5119920;28;20201;-83
2022/01/16 10:50:34;;;;;;;32.08;16.45;;;5.40;99.90;;;;;;5120048;28;20665;-78
2022/01/16 10:53:12;;;;;;;35.70;18.77;;;5.40;99.90;;;;;;5118717;28;20163;-79
2022/01/16 10:55:49;;;;;;;31.88;16.33;;;5.30;99.90;;;;;;5121228;28;20206;-77
2022/01/16 10:58:24;;;;;;;34.15;17.40;;;5.30;99.90;;;;;;5118648;28;20617;-78
2022/01/16 11:01:03;;;;;;;36.70;17.70;;;5.20;99.90;;;;;;5115506;28;20188;-78
2022/01/16 11:03:46;;;;;;;36.35;17.85;;;5.10;99.90;;;;;;5119785;28;20377;-77
2022/01/16 11:06:13;;;;;;;39.08;17.63;;;5.20;99.90;;;;;;5121620;27;20656;-78
2022/01/16 11:08:39;;;;;;;29.50;16.17;;;5.30;99.90;;;;;;5121954;28;20205;-78
2022/01/16 11:11:07;;;;;;;31.77;16.15;;;5.30;99.90;;;;;;5121555;27;20243;-81
2022/01/16 11:13:34;;;;;;;29.67;15.30;;;5.30;99.90;;;;;;5123059;28;20567;-77
2022/01/16 11:16:05;;;;;;;31.83;17.38;;;5.20;99.90;;;;;;5122400;28;20157;-78
2022/01/16 11:18:35;;;;;;;32.85;16.38;;;5.20;99.90;;;;;;5123248;28;20169;-77
2022/01/16 11:23:33;;;;;;;41.38;18.55;;;5.40;99.90;;;;;;5127962;28;20177;-78
2022/01/16 11:26:05;;;;;;;31.65;17.83;;;5.40;99.90;;;;;;5133221;28;20208;-78
2022/01/16 11:28:31;;;;;;;36.08;17.33;;;5.40;99.90;;;;;;5133250;28;20284;-76
2022/01/16 11:31:02;;;;;;;32.67;17.45;;;5.60;99.90;;;;;;5135400;28;20185;-77
2022/01/16 11:33:35;;;;;;;34.47;16.35;;;5.60;99.90;;;;;;5128012;28;20272;-78
2022/01/16 11:36:03;;;;;;;36.90;17.67;;;5.60;99.90;;;;;;5131750;28;20188;-78
2022/01/16 11:38:34;;;;;;;33.17;18.17;;;5.60;99.90;;;;;;5131093;28;20173;-78
2022/01/16 11:41:51;;;;;;;37.63;17.85;;;5.60;99.90;;;;;;5130722;28;20196;-77
2022/01/16 11:44:27;;;;;;;36.03;17.55;;;5.40;99.90;;;;;;5059818;28;20336;-77
2022/01/16 11:46:59;;;;;;;35.90;18.73;;;5.60;99.90;;;;;;5051736;28;20539;-78
2022/01/16 11:49:42;;;;;;;37.05;17.05;;;5.80;99.90;;;;;;5071304;28;20179;-84
2022/01/16 11:52:19;;;;;;;36.92;18.67;;;5.90;99.90;;;;;;5034551;28;20167;-76
2022/01/16 11:54:50;;;;;;;33.35;16.92;;;6.10;99.90;;;;;;5082018;28;20249;-77
2022/01/16 11:57:28;;;;;;;32.10;17.08;;;6.00;99.90;;;;;;5131212;28;20154;-80
2022/01/16 12:00:17;;;;;;;44.25;19.35;;;6.10;99.90;;;;;;5131932;28;20200;-79
2022/01/16 12:02:55;;;;;;;35.08;17.40;;;6.00;99.90;;;;;;5113099;28;20175;-79
2022/01/16 12:05:23;;;;;;;36.03;18.05;;;5.90;99.90;;;;;;5126837;28;20180;-83
2022/01/16 12:07:51;;;;;;;34.30;16.92;;;5.90;99.90;;;;;;5123020;28;20213;-78
2022/01/16 12:10:42;;;;;;;33.20;16.65;;;6.10;99.90;;;;;;5121607;28;20185;-80
2022/01/16 12:13:48;;;;;;;31.27;16.73;;;6.20;99.90;;;;;;5120382;28;20203;-78
2022/01/16 12:16:36;;;;;;;33.65;16.88;;;6.20;99.90;;;;;;5124382;28;20165;-78
2022/01/16 12:19:35;;;;;;;35.30;16.98;;;6.00;99.90;;;;;;5122742;28;20249;-77
2022/01/16 12:22:01;;;;;;;45.05;17.40;;;6.00;99.90;;;;;;5124420;28;20205;-80
2022/01/16 12:24:39;;;;;;;33.22;16.73;;;6.00;99.90;;;;;;5124780;28;20168;-77
2022/01/16 12:27:50;;;;;;;32.70;16.27;;;5.90;99.90;;;;;;5125085;28;20667;-78
2022/01/16 12:30:28;;;;;;;36.13;16.95;;;5.80;99.90;;;;;;5111910;28;20197;-76
2022/01/16 12:33:08;;;;;;;30.48;15.38;;;5.80;99.90;;;;;;5118645;28;20176;-76
2022/01/16 12:35:49;;;;;;;36.35;16.73;;;5.90;99.90;;;;;;5123470;28;20176;-79
2022/01/16 12:38:19;;;;;;;40.17;17.52;;;6.00;99.90;;;;;;5116441;28;20515;-79
2022/01/16 12:40:51;;;;;;;34.40;17.00;;;6.00;99.90;;;;;;5121330;28;20177;-75
2022/01/16 12:43:27;;;;;;;31.23;16.17;;;6.20;99.90;;;;;;5126353;28;20171;-77
2022/01/16 12:45:53;;;;;;;34.50;15.77;;;6.20;99.90;;;;;;5123608;28;20637;-77
2022/01/16 12:48:19;;;;;;;34.83;17.92;;;6.20;99.90;;;;;;5123991;28;20287;-78
2022/01/16 12:50:45;;;;;;;34.78;16.35;;;6.20;99.90;;;;;;5121614;28;20224;-76
2022/01/16 12:53:11;;;;;;;33.92;16.52;;;6.10;99.90;;;;;;5122502;28;20209;-76
2022/01/16 12:55:38;;;;;;;35.72;17.58;;;6.20;99.90;;;;;;5120628;28;20161;-78
2022/01/16 12:58:18;;;;;;;39.55;17.52;;;6.30;99.90;;;;;;5119453;28;20172;-84
2022/01/16 13:01:00;;;;;;;39.00;17.70;;;6.10;99.90;;;;;;5121163;28;20230;-78
2022/01/16 13:03:27;;;;;;;36.28;17.42;;;6.00;99.90;;;;;;5117615;28;20176;-78
2022/01/16 13:06:27;;;;;;;34.60;17.45;;;6.10;99.90;;;;;;5115890;28;20164;-77
2022/01/16 13:09:06;;;;;;;28.58;16.42;;;6.00;99.90;;;;;;5118822;28;20213;-77
2022/01/16 13:11:37;;;;;;;33.10;16.70;;;5.80;99.90;;;;;;5120835;28;20203;-80
2022/01/16 13:14:25;;;;;;;31.63;16.75;;;5.90;99.90;;;;;;5119186;28;20165;-80
2022/01/16 13:16:57;;;;;;;32.20;16.42;;;5.90;99.90;;;;;;5117189;28;20567;-81
2022/01/16 13:19:24;;;;;;;41.45;18.63;;;6.00;99.90;;;;;;5114890;28;20264;-79
2022/01/16 13:22:11;;;;;;;31.58;16.98;;;5.80;99.90;;;;;;5117169;28;20200;-78